createdAt,value
2022-09-06T00:01:39.924Z,1.55
2022-09-06T00:04:09.639Z,1.80
2022-09-06T00:06:38.890Z,1.67
2022-09-06T00:09:05.895Z,1.95
2022-09-06T00:11:33.023Z,1.70
2022-09-06T00:14:00.071Z,2.25
2022-09-06T00:16:30.316Z,2.53
2022-09-06T00:18:58.001Z,2.40
2022-09-06T00:21:28.220Z,2.10
2022-09-06T00:23:55.742Z,1.70
2022-09-06T00:26:23.572Z,1.95
2022-09-06T00:28:50.683Z,2.75
2022-09-06T00:31:21.147Z,3.05
2022-09-06T00:33:48.767Z,3.05
2022-09-06T00:36:16.599Z,2.03
2022-09-06T00:38:44.431Z,2.72
2022-09-06T00:41:14.155Z,2.05
2022-09-06T00:43:41.585Z,3.10
2022-09-06T00:46:12.174Z,2.33
2022-09-06T00:48:40.300Z,2.20
2022-09-06T00:51:11.653Z,1.98
2022-09-06T00:53:39.350Z,1.63
2022-09-06T00:56:06.779Z,2.08
2022-09-06T00:58:34.560Z,1.65
2022-09-06T01:01:01.650Z,1.80
2022-09-06T01:03:28.917Z,2.30
2022-09-06T01:06:13.201Z,2.05
2022-09-06T01:08:49.427Z,1.95
2022-09-06T01:11:34.789Z,1.38
2022-09-06T01:14:29.299Z,1.90
2022-09-06T01:17:03.111Z,2.15
2022-09-06T01:19:52.503Z,1.90
2022-09-06T01:22:47.484Z,1.98
2022-09-06T01:25:24.175Z,2.22
2022-09-06T01:27:51.148Z,1.98
2022-09-06T01:30:19.526Z,2.30
2022-09-06T01:33:07.918Z,2.03
2022-09-06T01:35:50.656Z,1.90
2022-09-06T01:38:17.773Z,2.00
2022-09-06T01:40:44.862Z,2.00
2022-09-06T01:43:18.349Z,2.28
2022-09-06T01:46:27.499Z,2.17
2022-09-06T01:49:22.177Z,2.58
2022-09-06T01:52:04.571Z,2.42
2022-09-06T01:55:05.596Z,2.20
2022-09-06T01:57:50.467Z,2.20
2022-09-06T02:00:19.865Z,2.58
2022-09-06T02:03:13.172Z,2.20
2022-09-06T02:06:09.855Z,2.38
2022-09-06T02:08:44.646Z,2.30
2022-09-06T02:11:14.557Z,2.28
2022-09-06T02:13:52.790Z,2.53
2022-09-06T02:16:23.274Z,2.30
2022-09-06T02:18:56.773Z,2.00
2022-09-06T02:21:34.319Z,2.05
2022-09-06T02:24:05.192Z,2.97
2022-09-06T02:26:37.841Z,2.63
2022-09-06T02:29:05.153Z,2.92
2022-09-06T02:31:38.770Z,2.90
2022-09-06T02:34:06.779Z,2.63
2022-09-06T02:36:36.299Z,2.90
2022-09-06T02:39:05.083Z,2.58
2022-09-06T02:41:33.192Z,6.68
2022-09-06T02:44:00.328Z,5.20
2022-09-06T02:46:27.406Z,5.20
2022-09-06T02:48:54.681Z,7.70
2022-09-06T02:51:21.718Z,5.78
2022-09-06T02:53:48.791Z,5.60
2022-09-06T02:56:15.827Z,5.60
2022-09-06T02:58:43.342Z,3.55
2022-09-06T03:01:10.415Z,3.45
2022-09-06T03:03:37.622Z,2.90
2022-09-06T03:06:04.821Z,3.85
2022-09-06T03:08:34.113Z,4.40
2022-09-06T03:11:01.611Z,3.05
2022-09-06T03:13:29.115Z,2.53
2022-09-06T03:15:58.494Z,3.28
2022-09-06T03:18:27.348Z,2.45
2022-09-06T03:20:55.827Z,2.92
2022-09-06T03:23:25.731Z,2.83
2022-09-06T03:25:53.123Z,3.15
2022-09-06T03:28:21.759Z,3.55
2022-09-06T03:30:51.445Z,2.70
2022-09-06T03:33:19.337Z,3.20
2022-09-06T03:36:04.528Z,2.33
2022-09-06T03:38:31.546Z,2.60
2022-09-06T03:40:58.859Z,2.20
2022-09-06T03:43:27.130Z,2.38
2022-09-06T03:45:57.310Z,2.65
2022-09-06T03:48:28.169Z,2.30
2022-09-06T03:50:57.669Z,2.50
2022-09-06T03:53:26.592Z,3.10
2022-09-06T03:55:55.516Z,3.00
2022-09-06T03:58:23.557Z,3.80
2022-09-06T04:01:03.512Z,3.08
2022-09-06T04:03:31.134Z,3.13
2022-09-06T04:05:58.344Z,2.42
2022-09-06T04:08:26.139Z,3.47
2022-09-06T04:10:54.909Z,3.70
2022-09-06T04:13:23.261Z,3.17
2022-09-06T04:15:50.838Z,3.22
2022-09-06T04:18:18.485Z,4.93
2022-09-06T04:20:48.898Z,4.28
2022-09-06T04:23:16.771Z,4.38
2022-09-06T04:25:47.972Z,4.88
2022-09-06T04:28:18.165Z,4.80
2022-09-06T04:30:46.093Z,4.65
2022-09-06T04:33:13.111Z,4.30
2022-09-06T04:35:40.115Z,5.13
2022-09-06T04:38:07.182Z,5.80
2022-09-06T04:40:34.183Z,5.75
2022-09-06T04:43:01.216Z,4.97
2022-09-06T04:45:28.281Z,4.15
2022-09-06T04:47:55.491Z,3.42
2022-09-06T04:50:22.517Z,3.58
2022-09-06T04:52:49.558Z,3.70
2022-09-06T04:55:16.714Z,3.80
2022-09-06T04:57:47.470Z,4.53
2022-09-06T05:00:16.909Z,4.95
2022-09-06T05:02:45.058Z,5.20
2022-09-06T05:05:12.166Z,4.28
2022-09-06T05:07:39.187Z,4.15
2022-09-06T05:10:06.385Z,3.75
2022-09-06T05:12:33.471Z,3.22
2022-09-06T05:15:00.481Z,3.20
2022-09-06T05:17:27.499Z,3.33
2022-09-06T05:19:54.489Z,3.75
2022-09-06T05:22:21.643Z,3.28
2022-09-06T05:24:48.673Z,3.20
2022-09-06T05:27:15.839Z,3.65
2022-09-06T05:29:42.917Z,3.33
2022-09-06T05:32:09.929Z,3.17
2022-09-06T05:34:36.979Z,3.28
2022-09-06T05:37:04.272Z,2.90
2022-09-06T05:39:31.562Z,3.03
2022-09-06T05:41:58.792Z,3.85
2022-09-06T05:44:25.938Z,3.70
2022-09-06T05:46:53.550Z,3.25
2022-09-06T05:49:20.688Z,4.85
2022-09-06T05:51:51.960Z,2.88
2022-09-06T05:54:19.038Z,3.70
2022-09-06T05:56:46.063Z,3.72
2022-09-06T05:59:13.387Z,4.00
2022-09-06T06:01:51.654Z,4.28
2022-09-06T06:04:20.183Z,3.70
2022-09-06T06:06:47.383Z,3.75
2022-09-06T06:09:14.668Z,4.43
2022-09-06T06:11:42.078Z,4.88
2022-09-06T06:14:09.299Z,5.13
2022-09-06T06:16:36.682Z,4.45
2022-09-06T06:19:03.811Z,5.28
2022-09-06T06:21:33.107Z,4.55
2022-09-06T06:24:02.789Z,4.85
2022-09-06T06:26:35.601Z,5.07
2022-09-06T06:29:03.567Z,4.47
2022-09-06T06:31:32.001Z,4.53
2022-09-06T06:34:02.737Z,4.20
2022-09-06T06:36:31.728Z,5.75
2022-09-06T06:38:58.834Z,4.22
2022-09-06T06:41:28.907Z,4.00
2022-09-06T06:43:58.672Z,3.30
2022-09-06T06:46:31.478Z,3.05
2022-09-06T06:48:58.588Z,3.47
2022-09-06T06:51:32.539Z,2.80
2022-09-06T06:53:59.949Z,2.67
2022-09-06T06:56:29.669Z,2.80
2022-09-06T06:58:59.583Z,2.63
2022-09-06T07:01:28.998Z,2.05
2022-09-06T07:03:56.561Z,1.83
2022-09-06T07:09:11.868Z,6.30
2022-09-06T07:11:38.950Z,4.25
2022-09-06T07:14:06.012Z,8.10
2022-09-06T07:16:33.094Z,8.85
2022-09-06T07:19:00.345Z,9.10
2022-09-06T07:21:43.133Z,9.65
2022-09-06T07:24:10.650Z,3.25
2022-09-06T07:26:39.864Z,5.90
2022-09-06T07:29:08.460Z,7.05
2022-09-06T07:34:27.522Z,5.60
2022-09-06T07:36:56.229Z,4.22
2022-09-06T07:39:23.739Z,3.45
2022-09-06T07:41:50.842Z,2.92
2022-09-06T07:44:17.956Z,2.58
2022-09-06T07:46:45.155Z,3.03
2022-09-06T07:49:12.318Z,2.42
2022-09-06T07:51:39.340Z,2.30
2022-09-06T07:54:29.294Z,2.10
2022-09-06T07:56:54.001Z,2.30
2022-09-06T07:59:21.038Z,2.03
2022-09-06T08:01:48.902Z,2.22
2022-09-06T08:04:16.265Z,1.70
2022-09-06T08:09:33.680Z,1.63
2022-09-06T08:12:06.551Z,1.50
2022-09-06T08:14:34.588Z,2.55
2022-09-06T08:17:02.391Z,1.60
2022-09-06T08:19:29.443Z,1.73
2022-09-06T08:21:56.677Z,2.25
2022-09-06T08:24:23.704Z,1.90
2022-09-06T08:26:50.809Z,1.50
2022-09-06T08:29:19.842Z,2.13
2022-09-06T08:31:47.454Z,2.45
2022-09-06T08:34:15.193Z,1.90
2022-09-06T08:36:43.239Z,1.80
2022-09-06T08:39:11.114Z,1.48
2022-09-06T08:42:05.187Z,1.20
2022-09-06T08:47:21.544Z,0.98
2022-09-06T08:49:56.234Z,0.60
2022-09-06T08:52:49.324Z,0.77
2022-09-06T08:55:22.399Z,0.60
2022-09-06T08:58:14.357Z,0.47
2022-09-06T09:00:46.908Z,0.47
2022-09-06T09:05:51.891Z,0.57
2022-09-06T09:08:30.257Z,0.52
2022-09-06T09:11:15.260Z,0.20
2022-09-06T09:13:51.326Z,0.57
2022-09-06T09:16:19.628Z,0.70
2022-09-06T09:18:50.473Z,0.50
2022-09-06T09:21:24.700Z,0.50
2022-09-06T09:23:56.406Z,1.00
2022-09-06T09:26:26.766Z,0.63
2022-09-06T09:29:09.321Z,0.50
2022-09-06T09:31:51.331Z,0.43
2022-09-06T09:34:39.632Z,0.47
2022-09-06T09:40:04.765Z,0.40
2022-09-06T09:42:35.970Z,0.50
2022-09-06T09:45:22.836Z,0.45
2022-09-06T09:47:49.908Z,0.85
2022-09-06T09:50:32.386Z,0.40
2022-09-06T09:53:15.291Z,0.28
2022-09-06T09:55:43.512Z,0.20
2022-09-06T09:58:26.947Z,0.22
2022-09-06T10:01:30.617Z,0.25
2022-09-06T10:09:46.180Z,0.20
2022-09-06T10:12:19.064Z,0.20
2022-09-06T10:14:49.817Z,0.30
2022-09-06T10:17:48.668Z,0.17
2022-09-06T10:20:16.436Z,0.10
2022-09-06T10:22:49.243Z,0.17
2022-09-06T10:25:38.095Z,0.25
2022-09-06T10:28:22.297Z,0.40
2022-09-06T10:31:10.053Z,0.20
2022-09-06T10:33:40.015Z,0.20
2022-09-06T10:36:07.696Z,0.20
2022-09-06T10:39:04.210Z,0.22
2022-09-06T10:41:40.825Z,0.30
2022-09-06T10:44:26.902Z,0.20
2022-09-06T10:47:01.278Z,0.10
2022-09-06T10:49:28.589Z,0.30
2022-09-06T10:52:02.166Z,0.25
2022-09-06T10:54:32.803Z,0.65
2022-09-06T10:57:05.677Z,0.20
2022-09-06T10:59:43.256Z,0.77
2022-09-06T11:02:39.195Z,0.25
2022-09-06T11:10:51.575Z,0.38
2022-09-06T11:13:20.580Z,0.43
2022-09-06T11:16:07.981Z,0.50
2022-09-06T11:18:41.454Z,0.30
2022-09-06T11:21:30.176Z,0.30
2022-09-06T11:24:13.935Z,0.30
2022-09-06T11:26:46.971Z,0.30
2022-09-06T11:29:23.503Z,1.33
2022-09-06T11:32:17.694Z,0.68
2022-09-06T11:34:57.665Z,0.40
2022-09-06T11:37:32.738Z,0.50
2022-09-06T11:40:26.837Z,0.30
2022-09-06T11:42:55.052Z,0.50
2022-09-06T11:45:44.429Z,0.30
2022-09-06T11:48:23.883Z,0.57
2022-09-06T11:50:53.636Z,0.40
2022-09-06T11:53:24.040Z,0.40
2022-09-06T11:56:11.672Z,0.40
2022-09-06T11:58:41.432Z,0.45
2022-09-06T12:01:18.742Z,0.30
2022-09-06T12:04:04.945Z,0.30
2022-09-06T12:07:03.527Z,0.20
2022-09-06T12:09:30.548Z,0.38
2022-09-06T12:11:59.494Z,0.40
2022-09-06T12:14:29.585Z,0.50
2022-09-06T12:17:00.336Z,0.35
2022-09-06T12:19:46.176Z,0.60
2022-09-06T12:22:32.680Z,0.30
2022-09-06T12:25:00.504Z,0.30
2022-09-06T12:27:37.677Z,0.40
2022-09-06T12:30:11.719Z,0.20
2022-09-06T12:32:50.079Z,0.40
2022-09-06T12:38:17.063Z,0.82
2022-09-06T12:40:47.962Z,0.45
2022-09-06T12:43:17.040Z,0.40
2022-09-06T12:45:50.726Z,0.40
2022-09-06T12:48:32.209Z,0.70
2022-09-06T12:51:06.983Z,0.47
2022-09-06T12:53:34.906Z,0.52
2022-09-06T12:56:12.640Z,0.60
2022-09-06T12:58:40.770Z,1.15
2022-09-06T13:01:22.807Z,0.80
2022-09-06T13:04:02.774Z,0.60
2022-09-06T13:06:36.461Z,0.50
2022-09-06T13:09:05.004Z,0.50
2022-09-06T13:11:38.535Z,0.50
2022-09-06T13:14:16.900Z,0.50
2022-09-06T13:16:47.393Z,0.80
2022-09-06T13:19:32.513Z,0.63
2022-09-06T13:22:00.259Z,0.40
2022-09-06T13:24:46.371Z,0.47
2022-09-06T13:27:25.415Z,1.35
2022-09-06T13:30:32.527Z,0.80
2022-09-06T13:33:00.297Z,0.70
2022-09-06T13:35:30.875Z,0.70
2022-09-06T13:38:35.475Z,0.60
2022-09-06T13:41:13.527Z,0.68
2022-09-06T13:43:45.631Z,0.80
2022-09-06T13:46:12.927Z,0.70
2022-09-06T13:48:40.426Z,0.63
2022-09-06T13:51:08.046Z,0.77
2022-09-06T13:53:35.643Z,0.50
2022-09-06T13:56:03.387Z,0.80
2022-09-06T13:58:30.533Z,0.60
2022-09-06T14:00:58.425Z,0.80
2022-09-06T14:03:31.084Z,0.60
2022-09-06T14:06:00.146Z,0.63
2022-09-06T14:08:43.430Z,0.50
2022-09-06T14:11:15.360Z,0.75
2022-09-06T14:13:42.438Z,0.52
2022-09-06T14:16:09.506Z,0.95
2022-09-06T14:18:36.615Z,0.70
2022-09-06T14:21:05.361Z,0.68
2022-09-06T14:23:33.078Z,0.60
2022-09-06T14:26:02.440Z,0.60
2022-09-06T14:28:32.287Z,0.43
2022-09-06T14:31:13.200Z,0.65
2022-09-06T14:33:40.333Z,0.40
2022-09-06T14:36:09.833Z,0.90
2022-09-06T14:38:39.012Z,0.60
2022-09-06T14:41:07.243Z,0.80
2022-09-06T14:43:35.357Z,0.55
2022-09-06T14:46:11.061Z,0.80
2022-09-06T14:48:42.147Z,0.65
2022-09-06T14:51:14.228Z,0.60
2022-09-06T14:53:43.506Z,0.60
2022-09-06T14:56:11.946Z,0.70
2022-09-06T14:58:40.751Z,0.40
2022-09-06T15:01:13.035Z,0.60
2022-09-06T15:06:09.513Z,2.67
2022-09-06T15:08:37.717Z,0.70
2022-09-06T15:11:07.995Z,0.52
2022-09-06T15:13:38.946Z,0.80
2022-09-06T15:16:08.248Z,0.90
2022-09-06T15:18:35.807Z,0.90
2022-09-06T15:21:10.961Z,0.88
2022-09-06T15:23:39.474Z,0.90
2022-09-06T15:26:08.259Z,0.50
2022-09-06T15:28:40.349Z,0.90
2022-09-06T15:31:08.465Z,0.57
2022-09-06T15:33:37.209Z,0.98
2022-09-06T15:36:06.461Z,0.50
2022-09-06T15:38:41.230Z,0.50
2022-09-06T15:41:14.211Z,0.57
2022-09-06T15:43:44.038Z,0.70
2022-09-06T15:46:11.157Z,0.52
2022-09-06T15:48:44.031Z,0.88
2022-09-06T15:51:13.571Z,0.60
2022-09-06T15:53:40.658Z,0.90
2022-09-06T15:56:09.858Z,1.08
2022-09-06T15:58:36.885Z,0.60
2022-09-06T16:01:05.935Z,1.27
2022-09-06T16:03:43.304Z,1.00
2022-09-06T16:06:27.204Z,0.57
2022-09-06T16:09:07.414Z,0.70
2022-09-06T16:11:36.670Z,0.52
2022-09-06T16:14:05.096Z,0.50
2022-09-06T16:16:33.120Z,1.13
2022-09-06T16:19:00.437Z,0.60
2022-09-06T16:21:31.407Z,0.60
2022-09-06T16:24:01.270Z,0.88
2022-09-06T16:26:34.561Z,0.60
2022-09-06T16:29:02.638Z,0.63
2022-09-06T16:31:30.024Z,0.55
2022-09-06T16:33:57.898Z,0.60
2022-09-06T16:36:26.359Z,0.40
2022-09-06T16:38:54.783Z,0.80
2022-09-06T16:41:28.967Z,1.48
2022-09-06T16:43:56.432Z,0.60
2022-09-06T16:46:25.443Z,1.00
2022-09-06T16:48:54.116Z,0.80
2022-09-06T16:51:22.323Z,0.70
2022-09-06T16:53:49.948Z,0.85
2022-09-06T16:56:19.933Z,0.60
2022-09-06T16:58:53.492Z,0.95
2022-09-06T17:01:21.085Z,0.80
2022-09-06T17:03:48.626Z,0.60
2022-09-06T17:06:16.309Z,0.40
2022-09-06T17:08:44.289Z,0.50
2022-09-06T17:11:16.630Z,0.30
2022-09-06T17:13:45.123Z,0.63
2022-09-06T17:16:31.086Z,0.98
2022-09-06T17:19:01.130Z,0.40
2022-09-06T17:21:29.279Z,0.60
2022-09-06T17:24:04.517Z,0.95
2022-09-06T17:26:34.291Z,1.30
2022-09-06T17:29:01.728Z,0.70
2022-09-06T17:31:29.288Z,1.00
2022-09-06T17:33:56.344Z,1.25
2022-09-06T17:36:25.776Z,0.68
2022-09-06T17:38:54.082Z,1.00
2022-09-06T17:41:27.925Z,1.00
2022-09-06T17:43:55.691Z,1.83
2022-09-06T17:46:28.514Z,0.80
2022-09-06T17:48:56.937Z,1.27
2022-09-06T17:51:25.492Z,1.70
2022-09-06T17:53:53.308Z,1.40
2022-09-06T17:56:21.094Z,1.33
2022-09-06T17:58:56.574Z,0.65
2022-09-06T18:01:26.123Z,0.93
2022-09-06T18:03:53.172Z,0.60
2022-09-06T18:06:22.825Z,0.93
2022-09-06T18:08:52.432Z,0.73
2022-09-06T18:11:24.905Z,0.63
2022-09-06T18:16:23.666Z,0.98
2022-09-06T18:18:52.663Z,0.60
2022-09-06T18:21:20.822Z,0.82
2022-09-06T18:23:48.057Z,1.30
2022-09-06T18:26:16.820Z,0.77
2022-09-06T18:28:44.160Z,0.70
2022-09-06T18:31:14.125Z,0.88
2022-09-06T18:33:42.557Z,0.60
2022-09-06T18:36:11.360Z,0.75
2022-09-06T18:38:39.992Z,0.65
2022-09-06T18:41:09.034Z,0.82
2022-09-06T18:43:42.405Z,0.90
2022-09-06T18:46:12.650Z,0.85
2022-09-06T18:48:40.618Z,0.82
2022-09-06T18:51:12.899Z,0.80
2022-09-06T18:53:44.796Z,0.88
2022-09-06T18:56:13.948Z,0.80
2022-09-06T18:58:42.067Z,1.35
2022-09-06T19:01:14.760Z,1.05
2022-09-06T19:03:42.773Z,1.92
2022-09-06T19:06:11.428Z,1.23
2022-09-06T19:08:38.945Z,1.45
2022-09-06T19:11:12.248Z,1.20
2022-09-06T19:13:44.373Z,2.10
2022-09-06T19:16:13.564Z,1.48
2022-09-06T19:18:41.816Z,2.05
2022-09-06T19:21:12.019Z,1.73
2022-09-06T19:23:41.769Z,1.85
2022-09-06T19:26:20.409Z,1.13
2022-09-06T19:28:48.650Z,0.98
2022-09-06T19:31:16.048Z,1.55
2022-09-06T19:33:45.020Z,1.98
2022-09-06T19:36:13.144Z,2.10
2022-09-06T19:41:29.981Z,1.10
2022-09-06T19:43:58.207Z,1.73
2022-09-06T19:46:25.947Z,1.15
2022-09-06T19:48:55.884Z,1.98
2022-09-06T19:51:23.690Z,1.52
2022-09-06T19:54:00.001Z,2.15
2022-09-06T19:56:33.241Z,1.60
2022-09-06T19:59:03.222Z,1.25
2022-09-06T20:01:32.555Z,1.05
2022-09-06T20:04:02.821Z,1.02
2022-09-06T20:06:31.223Z,1.00
2022-09-06T20:08:59.928Z,1.10
2022-09-06T20:11:29.710Z,0.90
2022-09-06T20:13:57.127Z,1.30
2022-09-06T20:16:24.948Z,1.10
2022-09-06T20:18:54.268Z,1.40
2022-09-06T20:21:21.768Z,1.30
2022-09-06T20:23:53.400Z,6.90
2022-09-06T20:26:23.742Z,16.27
2022-09-06T20:28:55.825Z,9.95
2022-09-06T20:31:23.124Z,6.10
2022-09-06T20:33:50.239Z,2.75
2022-09-06T20:36:18.794Z,1.40
2022-09-06T20:38:47.490Z,2.33
2022-09-06T20:41:18.219Z,2.55
2022-09-06T20:43:46.449Z,2.65
2022-09-06T20:46:18.473Z,2.20
2022-09-06T20:48:46.470Z,3.80
2022-09-06T20:51:18.587Z,5.45
2022-09-06T20:53:48.071Z,4.53
2022-09-06T20:56:17.785Z,4.90
2022-09-06T20:58:50.372Z,3.05
2022-09-06T21:01:22.555Z,1.95
2022-09-06T21:03:52.294Z,1.40
2022-09-06T21:06:20.800Z,1.30
2022-09-06T21:08:48.775Z,2.05
2022-09-06T21:11:16.081Z,1.48
2022-09-06T21:13:43.695Z,1.83
2022-09-06T21:16:11.019Z,1.85
2022-09-06T21:18:38.277Z,1.27
2022-09-06T21:21:07.782Z,1.55
2022-09-06T21:23:37.323Z,2.92
2022-09-06T21:26:07.539Z,3.13
2022-09-06T21:28:36.942Z,2.75
2022-09-06T21:31:12.000Z,3.17
2022-09-06T21:33:41.259Z,2.78
2022-09-06T21:36:11.219Z,2.17
2022-09-06T21:38:43.662Z,1.40
2022-09-06T21:41:12.105Z,1.40
2022-09-06T21:43:39.711Z,1.15
2022-09-06T21:46:11.322Z,1.25
2022-09-06T21:48:39.604Z,1.10
2022-09-06T21:51:08.107Z,5.60
2022-09-06T21:53:36.383Z,4.50
2022-09-06T21:56:04.891Z,4.80
2022-09-06T21:58:32.822Z,3.88
2022-09-06T22:01:01.838Z,4.95
2022-09-06T22:03:31.677Z,5.38
2022-09-06T22:05:58.766Z,4.45
2022-09-06T22:08:26.041Z,4.57
2022-09-06T22:10:53.194Z,5.55
2022-09-06T22:13:20.478Z,4.68
2022-09-06T22:15:47.558Z,4.55
2022-09-06T22:18:14.652Z,4.85
2022-09-06T22:20:41.775Z,3.85
2022-09-06T22:23:09.865Z,3.33
2022-09-06T22:25:36.978Z,2.60
2022-09-06T22:28:04.102Z,3.10
2022-09-06T22:30:31.174Z,3.58
2022-09-06T22:32:58.292Z,3.50
2022-09-06T22:35:25.379Z,3.17
2022-09-06T22:37:52.406Z,3.13
2022-09-06T22:40:19.423Z,2.63
2022-09-06T22:42:46.474Z,2.15
2022-09-06T22:45:13.500Z,2.97
2022-09-06T22:47:40.723Z,3.47
2022-09-06T22:50:08.392Z,3.85
2022-09-06T22:52:35.440Z,4.85
2022-09-06T22:55:02.753Z,5.38
2022-09-06T22:57:29.785Z,4.10
2022-09-06T22:59:56.872Z,3.65
2022-09-06T23:02:24.029Z,3.45
2022-09-06T23:04:51.417Z,3.22
2022-09-06T23:07:18.518Z,4.55
2022-09-06T23:09:45.538Z,5.00
2022-09-06T23:12:12.658Z,4.57
2022-09-06T23:14:39.690Z,4.07
2022-09-06T23:17:06.790Z,4.47
2022-09-06T23:19:33.823Z,3.05
2022-09-06T23:22:00.898Z,2.17
2022-09-06T23:24:28.192Z,1.55
2022-09-06T23:26:55.639Z,2.00
2022-09-06T23:29:23.077Z,1.13
2022-09-06T23:31:50.223Z,1.48
2022-09-06T23:34:17.381Z,0.95
2022-09-06T23:36:45.224Z,1.30
2022-09-06T23:39:12.337Z,1.58
2022-09-06T23:41:39.376Z,2.83
2022-09-06T23:44:06.704Z,3.28
2022-09-06T23:46:33.812Z,3.13
2022-09-06T23:49:00.902Z,2.38
2022-09-06T23:51:28.005Z,2.47
2022-09-06T23:53:55.065Z,2.42
2022-09-06T23:56:22.369Z,2.58
2022-09-06T23:58:49.464Z,2.25
